createdAt,value
2018-08-06T02:29:01.139Z,0.1
2018-08-06T02:30:06.102Z,0.1
2018-08-06T02:32:01.092Z,0.2
2018-08-06T02:33:01.227Z,0.3
2018-08-06T02:35:01.098Z,0.4
2018-08-06T02:36:06.084Z,0.5
2018-08-06T02:38:01.237Z,0.6
2018-08-06T02:39:01.090Z,0.7
2018-08-06T02:40:01.085Z,0.9
2018-08-06T02:41:01.113Z,1.0
2018-08-06T02:42:01.097Z,1.1
2018-08-06T02:43:01.292Z,1.3
2018-08-06T02:44:01.089Z,1.5
2018-08-06T02:45:01.091Z,1.7
2018-08-06T02:46:06.096Z,1.9
2018-08-06T02:47:01.091Z,2.1
2018-08-06T02:48:01.242Z,2.3
2018-08-06T02:49:01.096Z,2.6
2018-08-06T02:50:01.112Z,2.9
2018-08-06T02:51:01.119Z,3.3
2018-08-06T02:52:01.094Z,3.8
2018-08-06T02:53:01.236Z,4.3
2018-08-06T02:54:01.099Z,4.9
2018-08-06T02:55:01.060Z,5.6
2018-08-06T02:56:06.092Z,6.4
2018-08-06T02:57:01.089Z,7.3
2018-08-06T02:58:01.300Z,8.4
2018-08-06T02:59:01.091Z,9.6
2018-08-06T03:00:01.137Z,11.0
2018-08-06T03:01:06.095Z,12.6
2018-08-06T03:02:01.061Z,14.5
2018-08-06T03:03:01.263Z,16.6
2018-08-06T03:04:01.093Z,19.1
2018-08-06T03:05:06.095Z,22.0
2018-08-06T03:06:01.059Z,25.3
2018-08-06T03:07:01.061Z,29.2
2018-08-06T03:08:01.242Z,33.7
2018-08-06T03:09:01.093Z,38.9
2018-08-06T03:10:01.139Z,44.9
2018-08-06T03:11:01.062Z,51.8
2018-08-06T03:12:01.062Z,59.7
2018-08-06T03:13:01.256Z,68.5
2018-08-06T03:14:01.091Z,78.7
2018-08-06T03:15:06.098Z,90.2
2018-08-06T03:16:01.093Z,103.3
2018-08-06T03:17:01.095Z,118.0
2018-08-06T03:18:01.241Z,134.7
2018-08-06T03:19:01.094Z,153.5
2018-08-06T03:20:01.118Z,174.7
2018-08-06T03:21:01.100Z,198.6
2018-08-06T03:22:01.097Z,225.3
2018-08-06T03:23:01.241Z,255.1
2018-08-06T03:24:01.095Z,288.3
2018-08-06T03:25:01.128Z,325.4
2018-08-06T03:26:01.098Z,366.3
2018-08-06T03:27:01.095Z,411.5
2018-08-06T03:28:01.249Z,461.1
2018-08-06T03:29:01.102Z,515.4
2018-08-06T03:30:06.094Z,574.5
2018-08-06T03:31:01.102Z,638.7
2018-08-06T03:32:01.064Z,708.4
2018-08-06T03:33:01.238Z,783.7
2018-08-06T03:34:06.100Z,864.9
2018-08-06T03:35:01.098Z,952.0
2018-08-06T03:36:01.097Z,1045.2
2018-08-06T03:37:01.094Z,1144.6
2018-08-06T03:38:01.240Z,1250.3
2018-08-06T03:39:06.105Z,1362.2
2018-08-06T03:40:01.097Z,1480.6
2018-08-06T03:41:01.209Z,1605.8
2018-08-06T03:42:01.205Z,1737.5
2018-08-06T03:43:01.242Z,1876.3
2018-08-06T03:44:06.111Z,2022.3
2018-08-06T03:45:01.099Z,2175.5
2018-08-06T03:46:01.101Z,2336.3
2018-08-06T03:47:01.099Z,2504.9
2018-08-06T03:48:01.248Z,2681.5
2018-08-06T03:49:06.110Z,2857.9
2018-08-06T03:51:01.086Z,3059.5
2018-08-06T03:52:01.088Z,3269.6
2018-08-06T03:53:01.236Z,3488.5
2018-08-06T03:54:06.096Z,3717.1
2018-08-06T03:55:01.130Z,3956.9
2018-08-06T03:56:01.092Z,4206.0
2018-08-06T03:57:01.090Z,4461.7
2018-08-06T03:58:01.232Z,4723.9
2018-08-06T03:59:01.125Z,4991.0
2018-08-06T04:00:01.090Z,5262.3
2018-08-06T04:01:01.087Z,5538.4
2018-08-06T04:02:06.093Z,5818.3
2018-08-06T04:03:01.297Z,6101.8
2018-08-06T04:04:01.091Z,6388.8
2018-08-06T04:05:01.090Z,6689.7
2018-08-06T04:06:01.091Z,6980.0
2018-08-06T04:07:06.094Z,7277.1
2018-08-06T04:08:01.258Z,7578.5
2018-08-06T04:09:01.091Z,7881.8
2018-08-06T04:10:01.096Z,8184.1
2018-08-06T04:11:01.089Z,8485.9
2018-08-06T04:12:01.115Z,8788.9
2018-08-06T04:13:01.257Z,9092.8
2018-08-06T04:14:01.090Z,9398.7
2018-08-06T04:15:01.095Z,9706.3
2018-08-06T04:16:01.095Z,10014.5
2018-08-06T04:17:01.117Z,10323.3
2018-08-06T04:18:01.236Z,10632.1
2018-08-06T04:19:01.094Z,10940.5
2018-08-06T04:20:01.100Z,11245.5
2018-08-06T04:21:01.093Z,11545.1
2018-08-06T04:22:01.119Z,11837.7
2018-08-06T04:23:01.240Z,12124.7
2018-08-06T04:24:01.095Z,12406.8
2018-08-06T04:25:01.101Z,12684.5
2018-08-06T04:26:01.063Z,12958.6
2018-08-06T04:27:06.109Z,13229.7
2018-08-06T04:28:01.263Z,13498.2
2018-08-06T04:29:01.103Z,13762.4
2018-08-06T04:30:01.097Z,14023.9
2018-08-06T04:31:01.100Z,14284.1
2018-08-06T04:32:06.102Z,14542.1
2018-08-06T04:33:01.286Z,14796.5
2018-08-06T04:34:01.096Z,15047.4
2018-08-06T04:35:01.101Z,15296.7
2018-08-06T04:36:01.104Z,15545.3
2018-08-06T04:37:06.107Z,15797.6
2018-08-06T04:38:01.239Z,16050.3
2018-08-06T04:39:01.068Z,16304.9
2018-08-06T04:40:01.097Z,16563.1
2018-08-06T04:41:01.102Z,16829.8
2018-08-06T04:42:06.104Z,17104.2
2018-08-06T04:43:01.245Z,17389.3
2018-08-06T04:44:01.100Z,17681.8
2018-08-06T04:45:01.109Z,17983.6
2018-08-06T04:46:01.136Z,18292.7
2018-08-06T04:47:06.108Z,18607.5
2018-08-06T04:48:01.247Z,18932.1
2018-08-06T04:49:01.068Z,19266.4
2018-08-06T04:50:01.100Z,19609.2
2018-08-06T04:51:01.100Z,19955.7
2018-08-06T04:53:01.226Z,20316.5
2018-08-06T04:54:01.081Z,20677.7
2018-08-06T04:55:01.082Z,21037.7
2018-08-06T04:56:01.085Z,21394.9
2018-08-06T04:57:01.115Z,21742.6
2018-08-06T04:58:01.227Z,22080.3
2018-08-06T04:59:01.085Z,22407.0
2018-08-06T05:00:01.085Z,22725.4
2018-08-06T05:01:01.084Z,23031.0
2018-08-06T05:02:01.111Z,23325.1
2018-08-06T05:03:01.256Z,23613.1
2018-08-06T05:04:01.054Z,23910.1
2018-08-06T05:05:01.085Z,24341.3
2018-08-06T05:06:01.087Z,24931.9
2018-08-06T05:07:01.174Z,25467.1
2018-08-06T05:08:01.228Z,25822.1
2018-08-06T05:09:01.095Z,26068.9
2018-08-06T05:10:01.088Z,26327.2
2018-08-06T05:11:01.092Z,26600.7
2018-08-06T05:12:01.123Z,26895.6
2018-08-06T05:13:01.238Z,27321.3
2018-08-06T05:14:01.092Z,28048.7
2018-08-06T05:15:01.093Z,29092.9
2018-08-06T05:16:01.120Z,30182.3
2018-08-06T05:17:01.093Z,31247.7
2018-08-06T05:18:01.230Z,32550.5
2018-08-06T05:19:01.093Z,34102.3
2018-08-06T05:20:01.095Z,35498.2
2018-08-06T05:21:01.113Z,36683.1
2018-08-06T05:22:01.098Z,37775.9
2018-08-06T05:23:06.236Z,38866.3
2018-08-06T05:24:01.090Z,39979.6
2018-08-06T05:25:01.091Z,41039.7
2018-08-06T05:26:01.125Z,42070.5
2018-08-06T05:27:01.093Z,43082.0
2018-08-06T05:28:01.229Z,43973.4
2018-08-06T05:29:01.096Z,44586.5
2018-08-06T05:30:01.098Z,44926.4
2018-08-06T05:31:01.116Z,45282.0
2018-08-06T05:32:01.096Z,45737.5
2018-08-06T05:33:01.235Z,46059.2
2018-08-06T05:34:01.091Z,46216.6
2018-08-06T05:35:01.092Z,46483.0
2018-08-06T05:36:06.092Z,46852.7
2018-08-06T05:37:01.066Z,47397.3
2018-08-06T05:38:01.232Z,48112.7
2018-08-06T05:39:01.096Z,48916.0
2018-08-06T05:40:01.184Z,49757.9
2018-08-06T05:41:06.093Z,50605.5
2018-08-06T05:42:01.099Z,51448.7
2018-08-06T05:43:01.313Z,52286.7
2018-08-06T05:44:01.099Z,53097.2
2018-08-06T05:45:01.094Z,53871.1
2018-08-06T05:46:01.142Z,54598.3
2018-08-06T05:47:01.103Z,55261.9
2018-08-06T05:48:01.245Z,55821.3
2018-08-06T05:49:01.099Z,56274.9
2018-08-06T05:50:01.100Z,56629.1
2018-08-06T05:51:01.123Z,56935.5
2018-08-06T05:52:01.100Z,57238.5
2018-08-06T05:53:01.275Z,57549.8
2018-08-06T05:54:01.104Z,57878.1
2018-08-06T05:55:01.102Z,58232.1
2018-08-06T05:56:01.104Z,58616.5
2018-08-06T05:57:01.108Z,59013.0
2018-08-06T05:58:01.241Z,59416.1
2018-08-06T05:59:01.107Z,59843.9
2018-08-06T06:00:01.106Z,60300.5
2018-08-06T06:01:01.104Z,60793.1
2018-08-06T06:02:01.103Z,61304.6
2018-08-06T06:03:01.306Z,61800.1
2018-08-06T06:04:01.109Z,62282.7
2018-08-06T06:06:01.092Z,62752.6
2018-08-06T06:07:01.095Z,63192.7
2018-08-06T06:08:01.266Z,63587.9
2018-08-06T06:09:01.091Z,63950.9
2018-08-06T06:10:01.116Z,64276.6
2018-08-06T06:11:01.092Z,64562.2
2018-08-06T06:12:01.098Z,64808.5
2018-08-06T06:13:01.300Z,65029.8
2018-08-06T06:14:01.098Z,65224.8
2018-08-06T06:15:01.095Z,65382.6
2018-08-06T06:16:01.098Z,65490.5
2018-08-06T06:17:01.100Z,65535.0
2018-08-06T06:30:01.230Z,65535.0
2018-08-06T06:45:01.105Z,65535.0
2018-08-06T07:00:01.205Z,65535.0
2018-08-06T07:15:06.107Z,65535.0
2018-08-06T07:30:06.180Z,65535.0
2018-08-06T07:45:01.112Z,65535.0
2018-08-06T08:00:01.154Z,65535.0
2018-08-06T08:15:01.098Z,65535.0
2018-08-06T08:30:01.300Z,65535.0
2018-08-06T08:45:01.098Z,65535.0
2018-08-06T09:00:01.101Z,65535.0
2018-08-06T09:16:01.089Z,65535.0
2018-08-06T09:30:01.152Z,65535.0
2018-08-06T09:45:01.097Z,65535.0
2018-08-06T10:00:01.434Z,65535.0
2018-08-06T10:15:01.127Z,65535.0
2018-08-06T10:30:01.173Z,65535.0
2018-08-06T10:45:01.099Z,65535.0
2018-08-06T11:00:01.094Z,65535.0
2018-08-06T11:15:01.112Z,65535.0
2018-08-06T11:30:01.091Z,65535.0
2018-08-06T11:45:01.083Z,65535.0
2018-08-06T12:00:01.093Z,65535.0
2018-08-06T12:15:01.145Z,65535.0
2018-08-06T12:30:01.097Z,65535.0
2018-08-06T12:45:01.104Z,65535.0
2018-08-06T13:00:01.097Z,65535.0
2018-08-06T13:15:06.099Z,65535.0
2018-08-06T13:30:01.294Z,65535.0
2018-08-06T13:45:01.240Z,65535.0
2018-08-06T14:00:01.099Z,65535.0
2018-08-06T14:15:01.107Z,65535.0
2018-08-06T14:30:01.100Z,65535.0
2018-08-06T14:45:02.459Z,65535.0
2018-08-06T15:00:01.094Z,65535.0
2018-08-06T15:15:01.095Z,65535.0
2018-08-06T15:30:01.123Z,65535.0
2018-08-06T15:45:01.100Z,65535.0
2018-08-06T16:00:01.292Z,65535.0
2018-08-06T16:15:01.092Z,65535.0
2018-08-06T16:30:06.103Z,65535.0
2018-08-06T16:45:06.108Z,65535.0
2018-08-06T16:48:01.098Z,65375.4
2018-08-06T16:49:01.242Z,65024.5
2018-08-06T16:50:06.094Z,64539.8
2018-08-06T16:51:01.098Z,63982.3
2018-08-06T16:52:01.096Z,63403.4
2018-08-06T16:53:01.105Z,62846.7
2018-08-06T16:54:01.245Z,62338.4
2018-08-06T16:55:06.105Z,61884.0
2018-08-06T16:56:01.096Z,61506.3
2018-08-06T16:57:01.100Z,61241.1
2018-08-06T16:58:01.098Z,61126.0
2018-08-06T17:00:01.374Z,61126.0
2018-08-06T17:03:01.102Z,61285.6
2018-08-06T17:04:06.106Z,61636.5
2018-08-06T17:05:01.284Z,62121.2
2018-08-06T17:06:01.100Z,62678.7
2018-08-06T17:07:01.071Z,63214.1
2018-08-06T17:08:01.098Z,63587.9
2018-08-06T17:09:01.130Z,63785.2
2018-08-06T17:10:01.275Z,63826.4
2018-08-06T17:11:01.125Z,63718.7
2018-08-06T17:12:01.068Z,63448.3
2018-08-06T17:13:01.103Z,62987.3
2018-08-06T17:15:01.226Z,62321.9
2018-08-06T17:16:01.088Z,61604.1
2018-08-06T17:17:01.090Z,60831.7
2018-08-06T17:18:01.090Z,59998.7
2018-08-06T17:19:01.087Z,59103.6
2018-08-06T17:20:01.297Z,58149.9
2018-08-06T17:21:01.093Z,57143.5
2018-08-06T17:22:01.093Z,56096.7
2018-08-06T17:23:01.087Z,55066.2
2018-08-06T17:24:01.088Z,54160.7
2018-08-06T17:25:02.967Z,53375.6
2018-08-06T17:26:01.093Z,52685.3
2018-08-06T17:27:01.089Z,52054.0
2018-08-06T17:28:01.089Z,51452.5
2018-08-06T17:29:01.089Z,50859.1
2018-08-06T17:30:01.300Z,50310.8
2018-08-06T17:31:01.095Z,49762.0
2018-08-06T17:32:01.089Z,49209.0
2018-08-06T17:33:01.096Z,48657.1
2018-08-06T17:34:01.091Z,48110.6
2018-08-06T17:35:01.299Z,47572.7
2018-08-06T17:36:01.088Z,47046.6
2018-08-06T17:37:01.094Z,46531.0
2018-08-06T17:38:01.089Z,46024.5
2018-08-06T17:39:01.091Z,45522.8
2018-08-06T17:40:01.300Z,45028.4
2018-08-06T17:41:01.097Z,44547.9
2018-08-06T17:42:01.061Z,44089.1
2018-08-06T17:43:01.094Z,43660.3
2018-08-06T17:44:01.096Z,43268.8
2018-08-06T17:45:01.301Z,42921.5
2018-08-06T17:46:01.106Z,42618.5
2018-08-06T17:47:01.099Z,42358.7
2018-08-06T17:48:01.094Z,42139.2
2018-08-06T17:49:01.096Z,41955.3
2018-08-06T17:50:01.295Z,41803.4
2018-08-06T17:51:01.095Z,41675.9
2018-08-06T17:52:01.099Z,41568.4
2018-08-06T17:53:01.092Z,41477.1
2018-08-06T17:54:01.098Z,41399.7
2018-08-06T17:55:01.244Z,41333.1
2018-08-06T17:56:01.093Z,41268.2
2018-08-06T17:57:01.096Z,41194.9
2018-08-06T17:58:01.105Z,41102.4
2018-08-06T17:59:01.125Z,40981.0
2018-08-06T18:00:01.242Z,40825.1
2018-08-06T18:01:01.097Z,40633.5
2018-08-06T18:02:01.108Z,40405.9
2018-08-06T18:03:01.172Z,40140.6
2018-08-06T18:04:06.102Z,39840.1
2018-08-06T18:05:01.266Z,39508.3
2018-08-06T18:06:01.132Z,39151.9
2018-08-06T18:07:01.096Z,38774.8
2018-08-06T18:08:01.097Z,38376.9
2018-08-06T18:09:01.135Z,37960.1
2018-08-06T18:11:01.256Z,37513.3
2018-08-06T18:12:01.083Z,37051.9
2018-08-06T18:13:01.084Z,36578.5
2018-08-06T18:14:01.087Z,36092.8
2018-08-06T18:15:01.055Z,35590.0
2018-08-06T18:16:01.232Z,35064.6
2018-08-06T18:17:01.094Z,34516.8
2018-08-06T18:18:01.087Z,33951.8
2018-08-06T18:19:01.095Z,33376.9
2018-08-06T18:20:01.088Z,32796.9
2018-08-06T18:21:01.233Z,32212.3
2018-08-06T18:22:01.098Z,31624.7
2018-08-06T18:23:01.086Z,31031.7
2018-08-06T18:24:01.143Z,30433.2
2018-08-06T18:25:01.088Z,29824.5
2018-08-06T18:26:01.291Z,29209.1
2018-08-06T18:27:01.091Z,28576.1
2018-08-06T18:28:01.089Z,27929.6
2018-08-06T18:29:01.089Z,27272.0
2018-08-06T18:30:01.091Z,26608.9
2018-08-06T18:31:01.298Z,25947.5
2018-08-06T18:32:01.098Z,25297.2
2018-08-06T18:33:01.093Z,24663.1
2018-08-06T18:34:01.090Z,24046.4
2018-08-06T18:35:01.090Z,23445.7
2018-08-06T18:36:01.227Z,22859.9
2018-08-06T18:37:01.137Z,22287.7
2018-08-06T18:38:01.089Z,21731.5
2018-08-06T18:39:01.086Z,21191.8
2018-08-06T18:40:01.093Z,20669.9
2018-08-06T18:41:01.295Z,20168.1
2018-08-06T18:42:01.092Z,19682.7
2018-08-06T18:43:01.096Z,19210.7
2018-08-06T18:44:01.090Z,18751.8
2018-08-06T18:45:01.093Z,18305.7
2018-08-06T18:46:01.260Z,17862.8
2018-08-06T18:47:01.093Z,17405.5
2018-08-06T18:48:01.095Z,16915.9
2018-08-06T18:49:01.091Z,16383.9
2018-08-06T18:50:01.092Z,15804.3
2018-08-06T18:51:01.533Z,15177.0
2018-08-06T18:52:01.108Z,14505.2
2018-08-06T18:53:01.094Z,13790.2
2018-08-06T18:54:01.095Z,13034.5
2018-08-06T18:55:01.097Z,12243.5
2018-08-06T18:56:01.262Z,11424.9
2018-08-06T18:57:01.098Z,10587.1
2018-08-06T18:58:01.099Z,9739.1
2018-08-06T18:59:01.101Z,8892.1
2018-08-06T19:00:01.065Z,8062.5
2018-08-06T19:02:01.229Z,7258.0
2018-08-06T19:03:01.080Z,6511.6
2018-08-06T19:04:01.079Z,5838.0
2018-08-06T19:05:01.085Z,5244.3
2018-08-06T19:06:01.084Z,4732.1
2018-08-06T19:07:01.253Z,4295.6
2018-08-06T19:08:01.084Z,3924.0
2018-08-06T19:09:01.085Z,3606.3
2018-08-06T19:10:01.081Z,3332.6
2018-08-06T19:11:01.108Z,3093.7
2018-08-06T19:12:01.334Z,2880.9
2018-08-06T19:13:01.123Z,2687.8
2018-08-06T19:14:01.081Z,2510.0
2018-08-06T19:15:01.089Z,2344.3
2018-08-06T19:16:01.119Z,2188.3
2018-08-06T19:17:01.229Z,2053.2
2018-08-06T19:18:01.092Z,1924.1
2018-08-06T19:19:01.095Z,1801.3
2018-08-06T19:20:01.087Z,1684.9
2018-08-06T19:21:01.088Z,1575.3
2018-08-06T19:22:01.236Z,1472.1
2018-08-06T19:23:01.088Z,1374.5
2018-08-06T19:24:01.088Z,1281.8
2018-08-06T19:25:01.085Z,1193.3
2018-08-06T19:26:01.091Z,1108.5
2018-08-06T19:27:01.226Z,1027.6
2018-08-06T19:28:01.087Z,950.5
2018-08-06T19:29:01.093Z,877.1
2018-08-06T19:30:01.099Z,807.4
2018-08-06T19:31:01.087Z,741.5
2018-08-06T19:32:01.256Z,679.4
2018-08-06T19:33:01.087Z,620.9
2018-08-06T19:34:01.088Z,565.8
2018-08-06T19:35:01.088Z,514.1
2018-08-06T19:36:01.087Z,465.7
2018-08-06T19:37:01.229Z,420.3
2018-08-06T19:38:01.106Z,378.1
2018-08-06T19:39:01.087Z,339.1
2018-08-06T19:40:01.087Z,303.1
2018-08-06T19:41:01.087Z,270.3
2018-08-06T19:42:01.265Z,240.3
2018-08-06T19:43:01.088Z,212.9
2018-08-06T19:44:01.127Z,188.2
2018-08-06T19:45:01.097Z,165.9
2018-08-06T19:46:01.098Z,146.1
2018-08-06T19:47:01.249Z,128.4
2018-08-06T19:48:01.097Z,112.7
2018-08-06T19:49:01.096Z,98.9
2018-08-06T19:50:01.094Z,86.7
2018-08-06T19:51:01.103Z,76.1
2018-08-06T19:52:01.314Z,66.7
2018-08-06T19:53:01.100Z,58.5
2018-08-06T19:54:01.136Z,51.2
2018-08-06T19:55:01.095Z,44.9
2018-08-06T19:56:01.098Z,39.3
2018-08-06T19:57:01.244Z,34.3
2018-08-06T19:58:01.095Z,30.1
2018-08-06T19:59:01.099Z,26.3
2018-08-06T20:00:01.065Z,22.9
2018-08-06T20:02:01.224Z,19.9
2018-08-06T20:03:01.082Z,17.3
2018-08-06T20:04:01.082Z,15.1
2018-08-06T20:05:01.083Z,13.0
2018-08-06T20:06:01.049Z,11.3
2018-08-06T20:07:01.250Z,9.7
2018-08-06T20:08:01.080Z,8.4
2018-08-06T20:09:01.084Z,7.2
2018-08-06T20:10:01.086Z,6.2
2018-08-06T20:11:01.085Z,5.3
2018-08-06T20:12:01.255Z,4.5
2018-08-06T20:13:01.088Z,3.8
2018-08-06T20:14:01.172Z,3.2
2018-08-06T20:15:01.093Z,2.7
2018-08-06T20:16:01.086Z,2.3
2018-08-06T20:17:01.230Z,2.1
2018-08-06T20:18:01.176Z,1.8
2018-08-06T20:19:01.094Z,1.6
2018-08-06T20:20:01.087Z,1.5
2018-08-06T20:21:01.083Z,1.3
2018-08-06T20:22:01.233Z,1.1
2018-08-06T20:23:01.055Z,0.9
2018-08-06T20:24:01.055Z,0.8
2018-08-06T20:25:01.098Z,0.7
2018-08-06T20:26:01.090Z,0.6
2018-08-06T20:27:01.236Z,0.5
2018-08-06T20:29:01.154Z,0.4
2018-08-06T20:30:01.090Z,0.3
2018-08-06T20:32:01.241Z,0.2
2018-08-06T20:33:01.057Z,0.1
